createdAt,value
2018-11-11T00:01:11.399Z,34.08
2018-11-11T00:03:45.716Z,31.95
2018-11-11T00:06:20.165Z,26.57
2018-11-11T00:08:54.560Z,32.88
2018-11-11T00:11:29.123Z,21.93
2018-11-11T00:14:03.503Z,23.40
2018-11-11T00:16:37.796Z,22.62
2018-11-11T00:19:12.142Z,21.17
2018-11-11T00:21:46.605Z,27.67
2018-11-11T00:24:20.922Z,29.60
2018-11-11T00:26:55.253Z,20.62
2018-11-11T00:29:29.536Z,19.00
2018-11-11T00:32:04.019Z,24.95
2018-11-11T00:34:38.281Z,22.50
2018-11-11T00:37:12.594Z,19.07
2018-11-11T00:39:46.926Z,64.70
2018-11-11T00:42:21.126Z,48.98
2018-11-11T00:44:55.467Z,18.07
2018-11-11T00:47:29.771Z,17.67
2018-11-11T00:50:05.236Z,23.83
2018-11-11T00:52:39.471Z,28.02
2018-11-11T00:55:16.147Z,15.95
2018-11-11T00:57:50.607Z,16.37
2018-11-11T01:00:24.899Z,21.02
2018-11-11T01:02:59.298Z,57.93
2018-11-11T01:05:33.755Z,49.83
2018-11-11T01:08:08.004Z,22.50
2018-11-11T01:10:42.342Z,51.20
2018-11-11T01:13:16.613Z,33.83
2018-11-11T01:15:50.905Z,20.32
2018-11-11T01:18:25.414Z,56.45
2018-11-11T01:20:59.857Z,38.13
2018-11-11T01:23:34.259Z,29.77
2018-11-11T01:26:08.648Z,17.10
2018-11-11T01:28:42.927Z,21.37
2018-11-11T01:31:17.270Z,15.63
2018-11-11T01:33:51.499Z,16.25
2018-11-11T01:36:25.762Z,25.25
2018-11-11T01:39:00.040Z,19.12
2018-11-11T01:41:34.278Z,21.05
2018-11-11T01:44:09.205Z,20.10
2018-11-11T01:46:43.523Z,20.95
2018-11-11T01:49:18.000Z,40.92
2018-11-11T01:51:52.366Z,52.40
2018-11-11T01:54:26.597Z,45.43
2018-11-11T01:57:00.937Z,38.15
2018-11-11T01:59:35.369Z,57.00
2018-11-11T02:02:09.687Z,72.90
2018-11-11T02:04:44.072Z,60.73
2018-11-11T02:07:18.453Z,89.03
2018-11-11T02:09:52.938Z,23.95
2018-11-11T02:12:27.179Z,42.43
2018-11-11T02:15:01.515Z,57.23
2018-11-11T02:17:36.083Z,34.53
2018-11-11T02:20:15.247Z,35.63
2018-11-11T02:22:50.720Z,36.80
2018-11-11T02:25:25.050Z,22.52
2018-11-11T02:27:59.459Z,20.10
2018-11-11T02:30:33.695Z,20.10
2018-11-11T02:33:08.002Z,12.95
2018-11-11T02:35:42.335Z,16.60
2018-11-11T02:38:16.631Z,12.05
2018-11-11T02:40:51.016Z,16.37
2018-11-11T02:43:25.338Z,16.85
2018-11-11T02:45:59.726Z,15.15
2018-11-11T02:48:34.119Z,14.43
2018-11-11T02:51:08.476Z,14.78
2018-11-11T02:53:42.747Z,14.03
2018-11-11T02:56:17.212Z,15.65
2018-11-11T02:58:51.555Z,14.65
2018-11-11T03:01:25.860Z,16.50
2018-11-11T03:04:00.348Z,12.15
2018-11-11T03:06:34.822Z,14.35
2018-11-11T03:09:10.685Z,12.18
2018-11-11T03:11:45.033Z,13.15
2018-11-11T03:14:19.513Z,10.43
2018-11-11T03:16:53.847Z,47.43
2018-11-11T03:19:28.291Z,26.57
2018-11-11T03:22:02.720Z,19.62
2018-11-11T03:24:37.152Z,12.33
2018-11-11T03:27:11.399Z,12.55
2018-11-11T03:29:45.642Z,12.82
2018-11-11T03:32:19.897Z,14.05
2018-11-11T03:34:54.313Z,11.05
2018-11-11T03:37:28.624Z,11.15
2018-11-11T03:40:03.339Z,13.60
2018-11-11T03:42:37.799Z,12.65
2018-11-11T03:45:14.403Z,13.05
2018-11-11T03:47:49.859Z,12.30
2018-11-11T03:50:24.169Z,10.63
2018-11-11T03:52:58.502Z,14.73
2018-11-11T03:55:32.830Z,16.80
2018-11-11T03:58:07.101Z,14.35
2018-11-11T04:00:41.448Z,15.43
2018-11-11T04:03:15.939Z,14.65
2018-11-11T04:05:50.442Z,14.95
2018-11-11T04:08:24.872Z,17.70
2018-11-11T04:10:59.167Z,17.45
2018-11-11T04:13:33.594Z,13.22
2018-11-11T04:16:08.008Z,16.87
2018-11-11T04:18:42.323Z,23.42
2018-11-11T04:21:16.699Z,15.85
2018-11-11T04:23:51.008Z,13.15
2018-11-11T04:26:25.273Z,13.08
2018-11-11T04:28:59.562Z,14.58
2018-11-11T04:31:34.013Z,15.30
2018-11-11T04:34:08.365Z,12.28
2018-11-11T04:36:42.752Z,12.37
2018-11-11T04:39:17.042Z,13.35
2018-11-11T04:41:51.320Z,12.90
2018-11-11T04:44:25.615Z,10.68
2018-11-11T04:46:59.975Z,9.63
2018-11-11T04:49:34.466Z,14.38
2018-11-11T04:52:08.695Z,11.08
2018-11-11T04:54:43.074Z,8.73
2018-11-11T04:57:17.344Z,14.93
2018-11-11T04:59:51.696Z,9.30
2018-11-11T05:02:26.339Z,11.20
2018-11-11T05:05:00.743Z,10.70
2018-11-11T05:07:35.168Z,9.18
2018-11-11T05:10:09.767Z,10.25
2018-11-11T05:12:44.026Z,9.35
2018-11-11T05:15:18.251Z,9.98
2018-11-11T05:17:52.648Z,19.52
2018-11-11T05:20:26.890Z,23.07
2018-11-11T05:23:01.161Z,13.60
2018-11-11T05:25:35.344Z,17.23
2018-11-11T05:28:09.539Z,9.88
2018-11-11T05:30:43.779Z,9.23
2018-11-11T05:33:18.217Z,9.48
2018-11-11T05:35:52.629Z,10.00
2018-11-11T05:38:27.002Z,10.43
2018-11-11T05:41:01.339Z,10.63
2018-11-11T05:43:35.702Z,12.20
2018-11-11T05:46:10.079Z,11.20
2018-11-11T05:48:44.513Z,14.07
2018-11-11T05:51:18.946Z,14.25
2018-11-11T05:53:53.312Z,11.85
2018-11-11T05:56:27.642Z,12.03
2018-11-11T05:59:02.243Z,12.82
2018-11-11T06:01:36.713Z,12.68
2018-11-11T06:04:11.181Z,12.03
2018-11-11T06:06:45.484Z,13.13
2018-11-11T06:09:19.869Z,11.38
2018-11-11T06:11:54.174Z,10.75
2018-11-11T06:14:28.607Z,12.15
2018-11-11T06:17:03.057Z,13.70
2018-11-11T06:19:37.457Z,12.25
2018-11-11T06:22:11.703Z,16.48
2018-11-11T06:24:46.180Z,17.23
2018-11-11T06:27:20.398Z,14.38
2018-11-11T06:29:54.769Z,12.13
2018-11-11T06:32:29.113Z,10.95
2018-11-11T06:35:03.484Z,9.78
2018-11-11T06:37:37.881Z,10.20
2018-11-11T06:40:13.037Z,11.48
2018-11-11T06:42:47.481Z,9.90
2018-11-11T06:45:21.704Z,10.28
2018-11-11T06:47:56.021Z,10.45
2018-11-11T06:50:30.189Z,10.30
2018-11-11T06:53:04.511Z,9.30
2018-11-11T06:55:38.841Z,7.72
2018-11-11T06:58:13.093Z,8.30
2018-11-11T07:00:47.470Z,9.95
2018-11-11T07:03:33.165Z,11.48
2018-11-11T07:06:07.605Z,11.18
2018-11-11T07:08:41.842Z,12.40
2018-11-11T07:11:17.030Z,13.65
2018-11-11T07:13:51.264Z,13.98
2018-11-11T07:16:25.579Z,15.65
2018-11-11T07:18:59.830Z,13.05
2018-11-11T07:21:34.203Z,26.97
2018-11-11T07:24:08.681Z,27.73
2018-11-11T07:26:43.005Z,24.07
2018-11-11T07:29:17.223Z,21.87
2018-11-11T07:31:51.558Z,14.85
2018-11-11T07:34:25.889Z,17.98
2018-11-11T07:37:00.234Z,19.35
2018-11-11T07:39:34.570Z,13.58
2018-11-11T07:42:08.904Z,12.35
2018-11-11T07:44:43.269Z,9.25
2018-11-11T07:47:17.717Z,12.63
2018-11-11T07:49:52.043Z,9.20
2018-11-11T07:52:26.432Z,10.32
2018-11-11T07:55:00.870Z,12.00
2018-11-11T07:57:35.253Z,10.50
2018-11-11T08:00:11.635Z,13.32
2018-11-11T08:02:45.975Z,13.15
2018-11-11T08:05:20.272Z,13.05
2018-11-11T08:07:54.531Z,10.90
2018-11-11T08:10:40.294Z,11.75
2018-11-11T08:13:14.593Z,14.63
2018-11-11T08:15:49.017Z,10.40
2018-11-11T08:18:23.286Z,13.62
2018-11-11T08:20:57.555Z,24.80
2018-11-11T08:23:31.831Z,18.05
2018-11-11T08:26:06.262Z,22.67
2018-11-11T08:28:40.551Z,30.62
2018-11-11T08:31:14.923Z,16.23
2018-11-11T08:33:49.199Z,34.27
2018-11-11T08:36:23.503Z,13.18
2018-11-11T08:38:57.796Z,10.60
2018-11-11T08:41:32.146Z,10.28
2018-11-11T08:44:06.709Z,11.28
2018-11-11T08:46:42.242Z,12.73
2018-11-11T08:49:16.689Z,11.73
2018-11-11T08:51:50.966Z,10.50
2018-11-11T08:54:25.272Z,8.83
2018-11-11T08:56:59.635Z,9.15
2018-11-11T08:59:34.020Z,10.68
2018-11-11T09:02:07.983Z,9.10
2018-11-11T09:04:42.457Z,8.70
2018-11-11T09:07:16.822Z,8.25
2018-11-11T09:09:51.117Z,9.85
2018-11-11T09:12:25.556Z,9.90
2018-11-11T09:14:59.878Z,8.73
2018-11-11T09:17:34.356Z,12.85
2018-11-11T09:20:09.100Z,12.47
2018-11-11T09:22:43.577Z,11.35
2018-11-11T09:25:17.941Z,13.43
2018-11-11T09:27:52.183Z,19.48
2018-11-11T09:30:26.439Z,22.05
2018-11-11T09:33:00.748Z,10.72
2018-11-11T09:35:35.236Z,10.05
2018-11-11T09:38:09.520Z,12.85
2018-11-11T09:40:43.759Z,9.25
2018-11-11T09:43:18.065Z,7.80
2018-11-11T09:45:52.488Z,15.50
2018-11-11T09:48:26.895Z,8.90
2018-11-11T09:51:01.264Z,7.40
2018-11-11T09:53:35.592Z,6.65
2018-11-11T09:56:09.939Z,7.80
2018-11-11T09:58:44.405Z,7.95
2018-11-11T10:01:18.689Z,7.42
2018-11-11T10:03:57.320Z,8.13
2018-11-11T10:06:39.903Z,8.45
2018-11-11T10:09:22.375Z,7.03
2018-11-11T10:12:04.446Z,8.50
2018-11-11T10:15:41.629Z,7.05
2018-11-11T10:18:20.986Z,8.20
2018-11-11T10:21:15.739Z,6.92
2018-11-11T10:24:11.828Z,8.80
2018-11-11T10:26:53.912Z,7.87
2018-11-11T10:30:05.768Z,8.15
2018-11-11T10:33:11.419Z,10.58
2018-11-11T10:35:55.956Z,8.00
2018-11-11T10:38:33.919Z,9.15
2018-11-11T10:41:27.024Z,8.13
2018-11-11T10:44:04.166Z,6.40
2018-11-11T10:46:48.926Z,6.92
2018-11-11T10:49:29.259Z,8.73
2018-11-11T10:52:03.496Z,6.80
2018-11-11T10:54:37.803Z,5.20
2018-11-11T10:57:12.112Z,4.60
2018-11-11T10:59:46.512Z,10.78
2018-11-11T11:02:25.153Z,5.60
2018-11-11T11:05:05.037Z,8.65
2018-11-11T11:07:39.282Z,6.67
2018-11-11T11:10:13.681Z,6.40
2018-11-11T11:12:48.131Z,5.70
2018-11-11T11:15:22.609Z,9.08
2018-11-11T11:17:56.844Z,5.85
2018-11-11T11:20:31.236Z,5.00
2018-11-11T11:23:06.016Z,5.87
2018-11-11T11:25:40.344Z,6.12
2018-11-11T11:28:14.775Z,5.97
2018-11-11T11:30:48.986Z,3.77
2018-11-11T11:33:23.338Z,8.35
2018-11-11T11:35:57.656Z,4.08
2018-11-11T11:38:32.161Z,4.55
2018-11-11T11:41:06.457Z,3.17
2018-11-11T11:43:40.879Z,4.50
2018-11-11T11:46:15.225Z,6.55
2018-11-11T11:48:49.526Z,11.25
2018-11-11T11:51:23.787Z,15.08
2018-11-11T11:53:58.466Z,4.95
2018-11-11T11:56:32.800Z,3.60
2018-11-11T11:59:07.137Z,2.92
2018-11-11T12:01:41.486Z,2.37
2018-11-11T12:04:15.938Z,2.67
2018-11-11T12:06:50.268Z,3.20
2018-11-11T12:09:24.916Z,3.45
2018-11-11T12:11:59.331Z,2.47
2018-11-11T12:14:33.821Z,6.72
2018-11-11T12:17:08.111Z,3.80
2018-11-11T12:19:42.471Z,3.55
2018-11-11T12:22:16.698Z,2.85
2018-11-11T12:24:50.981Z,2.70
2018-11-11T12:27:25.207Z,9.83
2018-11-11T12:29:59.476Z,2.17
2018-11-11T12:32:33.820Z,2.35
2018-11-11T12:35:08.604Z,2.08
2018-11-11T12:37:43.003Z,2.67
2018-11-11T12:40:17.371Z,1.92
2018-11-11T12:42:51.525Z,7.00
2018-11-11T12:45:25.871Z,12.85
2018-11-11T12:48:00.174Z,9.93
2018-11-11T12:50:34.538Z,6.45
2018-11-11T12:53:08.916Z,4.28
2018-11-11T12:55:43.396Z,4.70
2018-11-11T12:58:17.894Z,3.22
2018-11-11T13:00:52.397Z,2.47
2018-11-11T13:03:26.755Z,2.20
2018-11-11T13:06:01.175Z,2.55
2018-11-11T13:08:35.545Z,2.55
2018-11-11T13:11:09.863Z,3.55
2018-11-11T13:13:44.208Z,2.77
2018-11-11T13:16:18.351Z,3.22
2018-11-11T13:18:52.761Z,2.35
2018-11-11T13:21:27.070Z,11.18
2018-11-11T13:24:01.342Z,2.75
2018-11-11T13:26:35.685Z,1.92
2018-11-11T13:29:10.087Z,1.50
2018-11-11T13:31:44.376Z,4.10
2018-11-11T13:34:18.726Z,1.25
2018-11-11T13:36:53.012Z,1.37
2018-11-11T13:39:27.470Z,1.70
2018-11-11T13:42:01.827Z,1.85
2018-11-11T13:44:36.242Z,6.40
2018-11-11T13:47:10.567Z,1.70
2018-11-11T13:49:45.001Z,3.70
2018-11-11T13:52:19.525Z,9.18
2018-11-11T13:54:53.849Z,10.25
2018-11-11T13:57:28.240Z,4.08
2018-11-11T14:00:02.735Z,3.70
2018-11-11T14:02:37.031Z,4.80
2018-11-11T14:05:11.551Z,3.60
2018-11-11T14:07:46.252Z,4.30
2018-11-11T14:10:20.678Z,2.22
2018-11-11T14:12:54.997Z,2.83
2018-11-11T14:15:29.349Z,2.10
2018-11-11T14:18:03.733Z,2.30
2018-11-11T14:20:38.068Z,6.45
2018-11-11T14:23:12.687Z,3.77
2018-11-11T14:25:47.091Z,6.15
2018-11-11T14:28:21.387Z,3.62
2018-11-11T14:30:55.599Z,6.80
2018-11-11T14:33:29.858Z,2.40
2018-11-11T14:36:04.352Z,3.77
2018-11-11T14:38:38.949Z,5.92
2018-11-11T14:41:13.115Z,2.87
2018-11-11T14:43:47.376Z,3.10
2018-11-11T14:46:21.625Z,2.92
2018-11-11T14:48:55.972Z,3.55
2018-11-11T14:51:30.296Z,7.62
2018-11-11T14:54:04.997Z,4.72
2018-11-11T15:42:39.747Z,13.53
2018-11-11T15:45:16.955Z,15.90
2018-11-11T15:47:51.355Z,10.90
2018-11-11T15:50:26.995Z,13.13
2018-11-11T15:53:03.556Z,10.23
2018-11-11T15:55:39.062Z,17.25
2018-11-11T15:58:13.450Z,8.98
2018-11-11T16:00:47.875Z,5.90
2018-11-11T16:03:22.243Z,5.65
2018-11-11T16:05:56.764Z,15.83
2018-11-11T16:08:31.278Z,4.37
2018-11-11T16:11:06.181Z,6.47
2018-11-11T16:13:40.795Z,6.53
2018-11-11T16:16:15.216Z,9.00
2018-11-11T16:18:49.730Z,6.70
2018-11-11T16:21:24.171Z,6.10
2018-11-11T16:23:58.497Z,12.60
2018-11-11T16:26:32.973Z,17.60
2018-11-11T16:29:07.771Z,24.95
2018-11-11T16:31:42.057Z,20.88
2018-11-11T16:34:16.400Z,25.35
2018-11-11T16:36:50.690Z,21.57
2018-11-11T16:39:24.988Z,16.27
2018-11-11T16:41:59.370Z,14.60
2018-11-11T16:44:33.811Z,13.55
2018-11-11T16:47:08.247Z,17.52
2018-11-11T16:49:42.625Z,7.55
2018-11-11T16:52:16.947Z,8.65
2018-11-11T16:54:51.512Z,10.60
2018-11-11T16:57:25.812Z,15.10
2018-11-11T17:00:00.073Z,10.93
2018-11-11T17:02:34.488Z,8.55
2018-11-11T17:05:11.535Z,18.15
2018-11-11T17:07:46.247Z,21.12
2018-11-11T17:10:21.943Z,19.80
2018-11-11T17:12:57.653Z,42.60
2018-11-11T17:15:32.604Z,26.37
2018-11-11T17:18:07.014Z,36.25
2018-11-11T17:20:41.328Z,21.37
2018-11-11T17:23:15.744Z,19.95
2018-11-11T17:25:50.043Z,17.73
2018-11-11T17:28:24.469Z,21.62
2018-11-11T17:30:58.924Z,32.83
2018-11-11T17:33:33.346Z,40.98
2018-11-11T17:37:10.855Z,23.30
2018-11-11T17:39:45.260Z,36.98
2018-11-11T17:42:19.595Z,38.15
2018-11-11T17:44:54.155Z,53.05
2018-11-11T17:47:28.595Z,56.85
2018-11-11T17:50:03.035Z,56.05
2018-11-11T17:52:37.850Z,51.75
2018-11-11T17:55:13.535Z,50.70
2018-11-11T17:57:47.752Z,61.63
2018-11-11T18:00:23.595Z,56.10
2018-11-11T18:02:58.922Z,62.85
2018-11-11T18:05:33.283Z,53.70
2018-11-11T18:08:07.599Z,77.15
2018-11-11T18:10:42.005Z,75.78
2018-11-11T18:13:16.163Z,29.82
2018-11-11T18:16:00.783Z,67.90
2018-11-11T18:18:35.107Z,44.58
2018-11-11T18:21:09.496Z,33.58
2018-11-11T18:23:44.074Z,49.35
2018-11-11T18:26:18.337Z,15.90
2018-11-11T18:28:52.652Z,15.03
2018-11-11T18:31:27.012Z,21.80
2018-11-11T18:34:01.538Z,22.87
2018-11-11T18:36:35.904Z,11.00
2018-11-11T18:39:11.779Z,12.40
2018-11-11T18:41:46.307Z,13.65
2018-11-11T18:44:20.532Z,13.10
2018-11-11T18:46:54.995Z,20.97
2018-11-11T18:49:29.502Z,15.90
2018-11-11T18:52:03.806Z,18.05
2018-11-11T18:54:38.256Z,21.97
2018-11-11T18:57:12.862Z,23.07
2018-11-11T18:59:47.480Z,35.63
2018-11-11T19:02:22.166Z,36.08
2018-11-11T19:04:56.632Z,31.90
2018-11-11T19:07:31.176Z,26.27
2018-11-11T19:10:06.707Z,27.67
2018-11-11T19:12:41.862Z,30.35
2018-11-11T19:15:17.093Z,22.07
2018-11-11T19:17:52.346Z,24.00
2018-11-11T19:20:27.192Z,18.55
2018-11-11T19:23:01.669Z,22.10
2018-11-11T19:25:35.963Z,15.60
2018-11-11T19:28:10.359Z,13.95
2018-11-11T19:30:44.609Z,13.25
2018-11-11T19:33:18.979Z,17.23
2018-11-11T19:35:53.391Z,10.95
2018-11-11T19:38:27.730Z,10.23
2018-11-11T19:41:02.095Z,13.93
2018-11-11T19:43:36.421Z,15.08
2018-11-11T19:46:10.741Z,14.98
2018-11-11T19:48:45.192Z,15.25
2018-11-11T19:51:19.447Z,15.35
2018-11-11T19:53:53.837Z,15.72
2018-11-11T19:56:28.233Z,14.23
2018-11-11T19:59:02.515Z,17.87
2018-11-11T20:01:36.967Z,19.12
2018-11-11T20:04:11.456Z,17.73
2018-11-11T20:06:45.911Z,14.98
2018-11-11T20:09:20.248Z,17.65
2018-11-11T20:11:54.700Z,12.37
2018-11-11T20:14:28.935Z,27.30
2018-11-11T20:17:03.271Z,22.48
2018-11-11T20:19:37.524Z,23.38
2018-11-11T20:22:11.944Z,34.65
2018-11-11T20:24:46.264Z,20.30
2018-11-11T20:27:20.630Z,18.52
2018-11-11T20:29:55.124Z,19.32
2018-11-11T20:32:29.504Z,22.05
2018-11-11T20:35:03.852Z,20.12
2018-11-11T20:37:38.455Z,21.25
2018-11-11T20:40:14.196Z,18.48
2018-11-11T20:42:48.901Z,20.82
2018-11-11T20:45:24.699Z,21.25
2018-11-11T20:47:59.126Z,26.48
2018-11-11T20:50:34.192Z,21.77
2018-11-11T20:53:08.481Z,25.43
2018-11-11T20:55:42.988Z,19.30
2018-11-11T20:58:17.276Z,25.02
2018-11-11T21:00:51.590Z,25.92
2018-11-11T21:03:25.991Z,55.73
2018-11-11T21:06:00.263Z,88.40
2018-11-11T21:08:34.470Z,79.75
2018-11-11T21:11:08.751Z,59.73
2018-11-11T21:13:43.211Z,32.25
2018-11-11T21:16:17.507Z,32.50
2018-11-11T21:18:52.060Z,26.15
2018-11-11T21:21:26.626Z,45.70
2018-11-11T21:24:01.019Z,42.10
2018-11-11T21:26:35.407Z,20.77
2018-11-11T21:29:09.695Z,27.15
2018-11-11T21:31:43.995Z,18.90
2018-11-11T21:34:18.367Z,21.42
2018-11-11T21:36:52.903Z,14.50
2018-11-11T21:39:27.408Z,15.35
2018-11-11T21:42:02.019Z,16.65
2018-11-11T21:44:36.478Z,15.23
2018-11-11T21:47:10.621Z,29.30
2018-11-11T21:49:45.125Z,14.80
2018-11-11T21:52:19.621Z,14.40
2018-11-11T21:54:54.056Z,15.20
2018-11-11T21:57:28.452Z,15.35
2018-11-11T22:00:02.937Z,15.55
2018-11-11T22:02:37.354Z,21.52
2018-11-11T22:05:12.725Z,18.62
2018-11-11T22:07:47.163Z,23.05
2018-11-11T22:10:21.461Z,13.50
2018-11-11T22:12:55.905Z,15.28
2018-11-11T22:15:30.234Z,14.95
2018-11-11T22:18:04.610Z,22.20
2018-11-11T22:20:38.875Z,23.62
2018-11-11T22:23:13.199Z,20.90
2018-11-11T22:25:47.490Z,21.60
2018-11-11T22:28:21.966Z,18.25
2018-11-11T22:30:56.269Z,13.85
2018-11-11T22:33:30.546Z,15.48
2018-11-11T22:36:04.979Z,12.20
2018-11-11T22:38:39.366Z,13.90
2018-11-11T22:41:13.807Z,12.25
2018-11-11T22:43:48.112Z,18.05
2018-11-11T22:46:22.467Z,13.45
2018-11-11T22:48:56.819Z,14.68
2018-11-11T22:51:31.303Z,23.77
2018-11-11T22:54:05.831Z,18.48
2018-11-11T22:56:40.193Z,18.85
2018-11-11T22:59:14.492Z,16.35
2018-11-11T23:01:48.920Z,20.72
2018-11-11T23:04:23.231Z,18.00
2018-11-11T23:06:57.628Z,19.37
2018-11-11T23:09:31.923Z,17.70
2018-11-11T23:12:06.412Z,18.85
2018-11-11T23:14:40.741Z,21.45
2018-11-11T23:17:16.087Z,20.52
2018-11-11T23:19:50.439Z,17.20
2018-11-11T23:22:24.791Z,16.70
2018-11-11T23:24:59.452Z,26.42
2018-11-11T23:27:33.776Z,22.37
2018-11-11T23:30:10.850Z,20.20
2018-11-11T23:32:45.468Z,14.43
2018-11-11T23:35:20.023Z,16.35
2018-11-11T23:37:54.321Z,13.38
2018-11-11T23:40:28.775Z,17.62
2018-11-11T23:43:03.143Z,18.50
2018-11-11T23:45:37.425Z,16.97
2018-11-11T23:48:11.943Z,17.25
2018-11-11T23:50:46.291Z,13.62
2018-11-11T23:53:20.614Z,18.95
2018-11-11T23:55:54.999Z,15.40
2018-11-11T23:58:29.369Z,14.53
